createdAt,value
2022-12-07T00:00:51.197Z,26.80
2022-12-07T00:01:51.335Z,27.60
2022-12-07T00:02:51.178Z,27.20
2022-12-07T00:03:51.269Z,27.40
2022-12-07T00:04:51.173Z,26.80
2022-12-07T00:05:51.147Z,26.20
2022-12-07T00:06:51.159Z,27.60
2022-12-07T00:07:51.170Z,26.50
2022-12-07T00:08:51.107Z,26.30
2022-12-07T00:09:51.120Z,26.90
2022-12-07T00:10:51.092Z,26.90
2022-12-07T00:11:51.081Z,27.10
2022-12-07T00:12:51.080Z,26.50
2022-12-07T00:13:51.056Z,25.80
2022-12-07T00:14:51.042Z,26.30
2022-12-07T00:15:51.036Z,26.90
2022-12-07T00:16:51.120Z,26.90
2022-12-07T00:17:51.025Z,26.50
2022-12-07T00:18:51.017Z,25.30
2022-12-07T00:19:51.001Z,27.00
2022-12-07T00:20:50.993Z,26.60
2022-12-07T00:21:50.976Z,24.90
2022-12-07T00:22:50.956Z,25.30
2022-12-07T00:23:50.963Z,25.00
2022-12-07T00:24:50.946Z,26.10
2022-12-07T00:25:50.922Z,25.60
2022-12-07T00:26:50.911Z,24.80
2022-12-07T00:27:50.906Z,24.10
2022-12-07T00:28:50.888Z,25.30
2022-12-07T00:29:50.902Z,26.20
2022-12-07T00:30:50.866Z,25.50
2022-12-07T00:31:50.943Z,25.50
2022-12-07T00:32:50.846Z,25.20
2022-12-07T00:33:50.849Z,24.70
2022-12-07T00:34:50.839Z,25.60
2022-12-07T00:35:50.819Z,25.20
2022-12-07T00:36:50.822Z,25.00
2022-12-07T00:37:50.798Z,25.40
2022-12-07T00:38:50.794Z,25.40
2022-12-07T00:39:50.773Z,26.00
2022-12-07T00:40:50.754Z,25.60
2022-12-07T00:41:50.770Z,25.20
2022-12-07T00:42:50.734Z,25.30
2022-12-07T00:43:50.726Z,24.90
2022-12-07T00:44:58.337Z,23.30
2022-12-07T00:45:50.781Z,24.60
2022-12-07T00:46:50.700Z,24.70
2022-12-07T00:47:50.682Z,24.30
2022-12-07T00:48:50.667Z,23.90
2022-12-07T00:49:50.678Z,24.80
2022-12-07T00:50:50.645Z,24.20
2022-12-07T00:51:50.650Z,23.80
2022-12-07T00:52:50.643Z,23.70
2022-12-07T00:53:50.616Z,23.00
2022-12-07T00:54:50.603Z,23.30
2022-12-07T00:55:50.618Z,23.10
2022-12-07T00:56:50.607Z,22.50
2022-12-07T00:57:50.591Z,22.20
2022-12-07T00:58:50.562Z,22.90
2022-12-07T00:59:50.551Z,22.70
2022-12-07T01:00:50.541Z,22.10
2022-12-07T01:01:50.608Z,22.80
2022-12-07T01:02:50.588Z,22.60
2022-12-07T01:03:50.524Z,22.50
2022-12-07T01:04:50.496Z,22.50
2022-12-07T01:05:50.489Z,22.40
2022-12-07T01:06:50.495Z,22.40
2022-12-07T01:07:50.497Z,22.30
2022-12-07T01:08:50.491Z,21.70
2022-12-07T01:09:50.442Z,22.00
2022-12-07T01:10:50.432Z,22.30
2022-12-07T01:11:50.424Z,22.20
2022-12-07T01:12:50.416Z,22.10
2022-12-07T01:13:50.401Z,22.70
2022-12-07T01:14:50.406Z,22.40
2022-12-07T01:15:50.379Z,22.10
2022-12-07T01:16:50.414Z,22.50
2022-12-07T01:17:50.385Z,21.90
2022-12-07T01:18:50.362Z,22.80
2022-12-07T01:19:50.334Z,21.00
2022-12-07T01:20:50.324Z,21.90
2022-12-07T01:21:50.313Z,22.10
2022-12-07T01:22:50.316Z,21.20
2022-12-07T01:23:50.307Z,21.20
2022-12-07T01:24:50.301Z,21.90
2022-12-07T01:25:50.268Z,21.40
2022-12-07T01:26:50.269Z,21.10
2022-12-07T01:27:50.250Z,21.60
2022-12-07T01:28:50.236Z,20.40
2022-12-07T01:29:50.228Z,20.30
2022-12-07T01:30:50.293Z,21.20
2022-12-07T01:31:50.231Z,21.00
2022-12-07T01:32:50.192Z,20.70
2022-12-07T01:33:50.196Z,20.40
2022-12-07T01:34:50.183Z,19.80
2022-12-07T01:35:50.159Z,19.50
2022-12-07T01:36:50.146Z,19.80
2022-12-07T01:37:50.138Z,19.50
2022-12-07T01:38:50.145Z,19.40
2022-12-07T01:39:50.120Z,18.30
2022-12-07T01:40:50.123Z,19.40
2022-12-07T01:41:50.109Z,18.70
2022-12-07T01:42:50.088Z,18.50
2022-12-07T01:43:50.074Z,18.90
2022-12-07T01:44:50.062Z,19.10
2022-12-07T01:45:50.108Z,18.50
2022-12-07T01:46:50.056Z,17.60
2022-12-07T01:47:50.032Z,18.20
2022-12-07T01:48:50.018Z,17.30
2022-12-07T01:49:50.016Z,17.40
2022-12-07T01:50:49.998Z,18.60
2022-12-07T01:51:50.000Z,17.10
2022-12-07T01:52:49.975Z,17.40
2022-12-07T01:53:49.984Z,16.80
2022-12-07T01:54:49.951Z,16.70
2022-12-07T01:55:49.945Z,17.30
2022-12-07T01:56:49.952Z,16.90
2022-12-07T01:57:49.929Z,16.30
2022-12-07T01:58:49.910Z,17.10
2022-12-07T01:59:49.918Z,17.20
2022-12-07T02:00:49.905Z,16.30
2022-12-07T02:01:49.945Z,16.90
2022-12-07T02:02:49.956Z,17.80
2022-12-07T02:03:49.858Z,16.20
2022-12-07T02:04:49.843Z,16.20
2022-12-07T02:05:49.854Z,16.10
2022-12-07T02:06:49.823Z,16.00
2022-12-07T02:07:49.877Z,16.00
2022-12-07T02:08:49.801Z,16.20
2022-12-07T02:09:49.811Z,16.80
2022-12-07T02:10:49.813Z,15.90
2022-12-07T02:11:49.774Z,16.10
2022-12-07T02:12:49.779Z,16.30
2022-12-07T02:13:49.750Z,16.70
2022-12-07T02:14:49.752Z,15.80
2022-12-07T02:15:49.756Z,15.00
2022-12-07T02:16:49.761Z,17.10
2022-12-07T02:17:49.705Z,15.00
2022-12-07T02:18:49.690Z,15.30
2022-12-07T02:19:49.691Z,16.00
2022-12-07T02:20:49.669Z,15.30
2022-12-07T02:21:49.683Z,15.30
2022-12-07T02:22:49.649Z,15.50
2022-12-07T02:23:49.641Z,14.40
2022-12-07T02:24:49.628Z,14.60
2022-12-07T02:25:49.620Z,14.50
2022-12-07T02:26:49.619Z,15.40
2022-12-07T02:27:49.716Z,14.20
2022-12-07T02:28:49.608Z,13.90
2022-12-07T02:29:49.580Z,13.80
2022-12-07T02:30:49.616Z,15.30
2022-12-07T02:31:49.569Z,14.00
2022-12-07T02:32:49.540Z,14.30
2022-12-07T02:33:49.532Z,13.70
2022-12-07T02:34:49.517Z,14.70
2022-12-07T02:35:49.510Z,14.50
2022-12-07T02:36:49.517Z,13.90
2022-12-07T02:37:49.503Z,13.50
2022-12-07T02:38:49.502Z,13.10
2022-12-07T02:39:49.473Z,13.10
